createdAt,value
2017-09-30T00:00:07.502Z,0
2017-09-30T00:01:17.438Z,0
2017-09-30T00:02:27.052Z,0
2017-09-30T00:03:36.349Z,0
2017-09-30T00:04:46.327Z,0
2017-09-30T00:05:56.601Z,0
2017-09-30T00:07:06.533Z,0
2017-09-30T00:08:16.480Z,0
2017-09-30T00:09:26.090Z,0
2017-09-30T00:10:36.620Z,0
2017-09-30T00:11:46.247Z,0
2017-09-30T00:12:56.193Z,0
2017-09-30T00:14:05.818Z,0
2017-09-30T00:15:15.432Z,0
2017-09-30T00:16:25.728Z,0
2017-09-30T00:17:35.352Z,0
2017-09-30T00:18:44.969Z,0
2017-09-30T00:19:54.894Z,0
2017-09-30T00:21:04.541Z,0
2017-09-30T00:22:14.726Z,0
2017-09-30T00:23:23.725Z,0
2017-09-30T00:24:33.983Z,0
2017-09-30T00:25:44.250Z,0
2017-09-30T00:26:53.236Z,0
2017-09-30T00:28:03.156Z,0
2017-09-30T00:29:13.096Z,0
2017-09-30T00:30:23.033Z,0
2017-09-30T00:31:32.984Z,0
2017-09-30T00:32:42.283Z,0
2017-09-30T00:33:52.155Z,0
2017-09-30T00:35:01.772Z,0
2017-09-30T00:36:11.394Z,0
2017-09-30T00:37:21.323Z,0
2017-09-30T00:38:30.947Z,0
2017-09-30T00:39:41.541Z,0
2017-09-30T00:40:51.793Z,0
2017-09-30T00:42:01.409Z,0
2017-09-30T00:43:11.344Z,0
2017-09-30T00:44:21.278Z,0
2017-09-30T00:45:31.464Z,0
2017-09-30T00:46:41.084Z,0
2017-09-30T00:47:51.355Z,0
2017-09-30T00:49:01.302Z,0
2017-09-30T00:50:11.232Z,0
2017-09-30T00:51:21.414Z,0
2017-09-30T00:52:31.348Z,0
2017-09-30T00:53:41.829Z,0
2017-09-30T00:54:51.140Z,0
2017-09-30T00:56:01.076Z,0
2017-09-30T00:57:11.266Z,0
2017-09-30T00:58:21.204Z,0
2017-09-30T00:59:30.820Z,0
2017-09-30T01:00:41.075Z,0
2017-09-30T01:01:50.072Z,0
2017-09-30T01:03:00.973Z,0
2017-09-30T01:04:10.908Z,0
2017-09-30T01:05:21.166Z,0
2017-09-30T01:06:30.771Z,0
2017-09-30T01:07:40.704Z,0
2017-09-30T01:08:51.227Z,0
2017-09-30T01:10:01.158Z,0
2017-09-30T01:11:11.081Z,0
2017-09-30T01:12:20.727Z,0
2017-09-30T01:13:30.667Z,0
2017-09-30T01:14:40.539Z,0
2017-09-30T01:15:50.458Z,0
2017-09-30T01:17:00.402Z,0
2017-09-30T01:18:10.331Z,0
2017-09-30T01:19:19.955Z,0
2017-09-30T01:20:30.261Z,0
2017-09-30T01:21:40.510Z,0
2017-09-30T01:22:49.810Z,0
2017-09-30T01:23:59.736Z,0
2017-09-30T01:25:10.008Z,0
2017-09-30T01:26:20.233Z,0
2017-09-30T01:27:30.485Z,0
2017-09-30T01:28:40.435Z,0
2017-09-30T01:29:50.697Z,0
2017-09-30T01:31:00.976Z,0
2017-09-30T01:32:10.840Z,0
2017-09-30T01:33:21.085Z,0
2017-09-30T01:34:31.335Z,0
2017-09-30T01:35:41.576Z,0
2017-09-30T01:36:51.819Z,0
2017-09-30T01:38:02.102Z,0
2017-09-30T01:39:12.043Z,0
2017-09-30T01:40:22.291Z,0
2017-09-30T01:41:32.551Z,0
2017-09-30T01:42:42.483Z,0
2017-09-30T01:43:52.672Z,0
2017-09-30T01:45:02.617Z,0
2017-09-30T01:46:12.547Z,0
2017-09-30T01:47:22.795Z,0
2017-09-30T01:48:33.033Z,0
2017-09-30T01:49:43.270Z,0
2017-09-30T01:50:53.205Z,0
2017-09-30T01:52:03.458Z,0
2017-09-30T01:53:13.396Z,0
2017-09-30T01:54:23.663Z,0
2017-09-30T01:55:34.268Z,0
2017-09-30T01:56:44.505Z,0
2017-09-30T01:57:54.142Z,0
2017-09-30T01:59:04.405Z,0
2017-09-30T02:00:14.332Z,0
2017-09-30T02:01:24.881Z,0
2017-09-30T02:02:34.824Z,0
2017-09-30T02:03:45.079Z,0
2017-09-30T02:04:55.335Z,0
2017-09-30T02:06:04.961Z,0
2017-09-30T02:07:15.473Z,0
2017-09-30T02:08:25.711Z,0
2017-09-30T02:09:35.949Z,0
2017-09-30T02:10:46.198Z,0
2017-09-30T02:11:56.445Z,0
2017-09-30T02:13:07.023Z,0
2017-09-30T02:14:16.951Z,0
2017-09-30T02:15:27.200Z,0
2017-09-30T02:16:36.819Z,0
2017-09-30T02:17:47.064Z,0
2017-09-30T02:18:57.357Z,0
2017-09-30T02:20:07.294Z,0
2017-09-30T02:21:17.579Z,0
2017-09-30T02:22:27.510Z,0
2017-09-30T02:23:37.445Z,0
2017-09-30T02:24:47.941Z,0
2017-09-30T02:25:57.875Z,0
2017-09-30T02:27:07.816Z,0
2017-09-30T02:28:17.750Z,0
2017-09-30T02:29:27.994Z,0
2017-09-30T02:30:38.278Z,0
2017-09-30T02:31:48.546Z,0
2017-09-30T02:32:58.787Z,0
2017-09-30T02:34:09.031Z,0
2017-09-30T02:35:18.966Z,0
2017-09-30T02:36:29.493Z,0
2017-09-30T02:37:39.775Z,0
2017-09-30T02:38:50.017Z,0
2017-09-30T02:39:59.946Z,0
2017-09-30T02:41:09.884Z,0
2017-09-30T02:42:20.400Z,0
2017-09-30T02:43:30.336Z,0
2017-09-30T02:44:40.286Z,0
2017-09-30T02:45:50.209Z,0
2017-09-30T02:46:59.833Z,0
2017-09-30T02:48:10.380Z,0
2017-09-30T02:49:20.631Z,0
2017-09-30T02:50:30.866Z,0
2017-09-30T02:51:41.123Z,0
2017-09-30T02:52:51.059Z,0
2017-09-30T02:54:01.687Z,0
2017-09-30T02:55:11.933Z,0
2017-09-30T02:56:21.866Z,0
2017-09-30T02:57:32.119Z,0
2017-09-30T02:58:42.062Z,0
2017-09-30T02:59:52.250Z,0
2017-09-30T03:01:02.493Z,0
2017-09-30T03:02:12.111Z,0
2017-09-30T03:03:22.354Z,0
2017-09-30T03:04:32.595Z,0
2017-09-30T03:05:43.103Z,0
2017-09-30T03:06:53.036Z,0
2017-09-30T03:08:03.276Z,0
2017-09-30T03:09:13.528Z,0
2017-09-30T03:10:23.769Z,0
2017-09-30T03:11:34.268Z,0
2017-09-30T03:12:44.514Z,0
2017-09-30T03:13:54.760Z,0
2017-09-30T03:15:05.012Z,0
2017-09-30T03:16:14.937Z,0
2017-09-30T03:17:25.137Z,0
2017-09-30T03:18:35.393Z,0
2017-09-30T03:19:45.638Z,0
2017-09-30T03:20:55.254Z,0
2017-09-30T03:22:04.866Z,0
2017-09-30T03:23:15.379Z,0
2017-09-30T03:24:25.634Z,0
2017-09-30T03:25:35.561Z,0
2017-09-30T03:26:45.830Z,0
2017-09-30T03:27:55.775Z,0
2017-09-30T03:29:06.268Z,0
2017-09-30T03:30:16.517Z,0
2017-09-30T03:31:26.756Z,0
2017-09-30T03:32:36.684Z,0
2017-09-30T03:33:46.930Z,0
2017-09-30T03:34:57.526Z,0
2017-09-30T03:36:07.463Z,0
2017-09-30T03:37:17.717Z,0
2017-09-30T03:38:27.966Z,0
2017-09-30T03:39:37.897Z,0
2017-09-30T03:40:48.083Z,0
2017-09-30T03:41:58.326Z,0
2017-09-30T03:43:08.575Z,0
2017-09-30T03:44:18.833Z,0
2017-09-30T03:45:29.079Z,0
2017-09-30T03:46:39.585Z,0
2017-09-30T03:47:49.845Z,0
2017-09-30T03:48:59.777Z,0
2017-09-30T03:50:10.015Z,0
2017-09-30T03:51:19.943Z,0
2017-09-30T03:52:30.440Z,0
2017-09-30T03:53:40.685Z,0
2017-09-30T03:54:50.930Z,0
2017-09-30T03:56:01.176Z,0
2017-09-30T03:57:10.786Z,0
2017-09-30T03:58:21.285Z,0
2017-09-30T03:59:31.526Z,0
2017-09-30T04:00:41.768Z,0
2017-09-30T04:01:52.044Z,0
2017-09-30T04:03:01.979Z,0
2017-09-30T04:04:12.477Z,0
2017-09-30T04:05:22.428Z,0
2017-09-30T04:06:32.665Z,0
2017-09-30T04:07:42.907Z,0
2017-09-30T04:08:52.520Z,0
2017-09-30T04:10:03.125Z,0
2017-09-30T04:11:13.061Z,0
2017-09-30T04:12:23.317Z,0
2017-09-30T04:13:33.567Z,0
2017-09-30T04:14:43.823Z,0
2017-09-30T04:15:53.690Z,0
2017-09-30T04:17:03.616Z,0
2017-09-30T04:18:13.545Z,0
2017-09-30T04:19:23.481Z,0
2017-09-30T04:20:33.736Z,0
2017-09-30T04:21:44.280Z,0
2017-09-30T04:22:54.527Z,0
2017-09-30T04:24:04.770Z,0
2017-09-30T04:25:15.031Z,0
2017-09-30T04:26:25.272Z,0
2017-09-30T04:27:35.876Z,0
2017-09-30T04:28:45.495Z,0
2017-09-30T04:29:55.739Z,0
2017-09-30T04:31:05.682Z,0
2017-09-30T04:32:15.916Z,0
2017-09-30T04:33:26.096Z,0
2017-09-30T04:34:36.027Z,0
2017-09-30T04:35:45.648Z,0
2017-09-30T04:36:55.581Z,0
2017-09-30T04:38:05.821Z,0
2017-09-30T04:39:16.005Z,0
2017-09-30T04:40:26.248Z,0
2017-09-30T04:41:36.177Z,0
2017-09-30T04:42:46.423Z,0
2017-09-30T04:43:56.668Z,0
2017-09-30T04:45:06.844Z,0
2017-09-30T04:46:17.089Z,0
2017-09-30T04:47:27.339Z,0
2017-09-30T04:48:37.582Z,0
2017-09-30T04:49:47.203Z,0
2017-09-30T04:50:57.379Z,0
2017-09-30T04:52:07.328Z,0
2017-09-30T04:53:17.581Z,0
2017-09-30T04:54:27.837Z,5
2017-09-30T04:55:38.082Z,5
2017-09-30T04:56:48.277Z,5
2017-09-30T04:57:58.212Z,5
2017-09-30T04:59:08.456Z,5
2017-09-30T05:00:18.385Z,10
2017-09-30T05:01:28.322Z,10
2017-09-30T05:02:38.498Z,10
2017-09-30T05:03:48.737Z,10
2017-09-30T05:04:58.993Z,15
2017-09-30T05:06:09.236Z,15
2017-09-30T05:07:19.177Z,15
2017-09-30T05:08:29.401Z,20
2017-09-30T05:09:39.657Z,20
2017-09-30T05:10:49.590Z,20
2017-09-30T05:11:59.210Z,25
2017-09-30T05:13:09.138Z,25
2017-09-30T05:14:19.640Z,30
2017-09-30T05:15:29.560Z,30
2017-09-30T05:16:39.822Z,35
2017-09-30T05:17:50.085Z,35
2017-09-30T05:19:00.338Z,40
2017-09-30T05:20:10.842Z,45
2017-09-30T05:21:20.770Z,45
2017-09-30T05:22:31.038Z,50
2017-09-30T05:23:40.974Z,50
2017-09-30T05:24:51.225Z,55
2017-09-30T05:26:01.721Z,60
2017-09-30T05:27:11.661Z,60
2017-09-30T05:28:21.905Z,65
2017-09-30T05:29:32.148Z,70
2017-09-30T05:30:42.415Z,70
2017-09-30T05:31:57.218Z,75
2017-09-30T05:33:07.460Z,75
2017-09-30T05:34:17.400Z,75
2017-09-30T05:35:27.331Z,80
2017-09-30T05:36:37.576Z,85
2017-09-30T05:37:47.835Z,85
2017-09-30T05:38:58.087Z,90
2017-09-30T05:40:08.017Z,95
2017-09-30T05:41:18.280Z,95
2017-09-30T05:42:28.524Z,100
2017-09-30T05:43:38.801Z,100
2017-09-30T05:44:48.762Z,105
2017-09-30T05:45:59.003Z,105
2017-09-30T05:47:09.251Z,115
2017-09-30T05:48:19.184Z,110
2017-09-30T05:49:28.522Z,115
2017-09-30T05:50:38.465Z,115
2017-09-30T05:51:48.404Z,120
2017-09-30T05:52:58.327Z,120
2017-09-30T05:54:08.586Z,125
2017-09-30T05:55:18.872Z,125
2017-09-30T05:56:29.121Z,130
2017-09-30T05:57:39.067Z,130
2017-09-30T05:58:49.326Z,135
2017-09-30T05:59:59.565Z,140
2017-09-30T06:01:10.075Z,140
2017-09-30T06:02:20.353Z,150
2017-09-30T06:03:30.627Z,150
2017-09-30T06:04:40.872Z,150
2017-09-30T06:05:51.125Z,155
2017-09-30T06:07:00.993Z,160
2017-09-30T06:08:10.922Z,160
2017-09-30T06:09:20.853Z,165
2017-09-30T06:10:31.100Z,170
2017-09-30T06:11:41.348Z,170
2017-09-30T06:12:51.941Z,175
2017-09-30T06:14:01.556Z,180
2017-09-30T06:15:11.814Z,180
2017-09-30T06:16:22.068Z,180
2017-09-30T06:17:32.318Z,185
2017-09-30T06:18:42.875Z,190
2017-09-30T06:19:52.489Z,190
2017-09-30T06:21:02.741Z,190
2017-09-30T06:22:12.670Z,195
2017-09-30T06:23:22.917Z,195
2017-09-30T06:24:33.214Z,205
2017-09-30T06:25:43.468Z,200
2017-09-30T06:26:53.719Z,205
2017-09-30T06:28:03.652Z,205
2017-09-30T06:29:13.914Z,210
2017-09-30T06:30:24.413Z,210
2017-09-30T06:31:34.656Z,215
2017-09-30T06:32:44.590Z,220
2017-09-30T06:33:54.523Z,220
2017-09-30T06:35:04.452Z,225
2017-09-30T06:36:14.647Z,225
2017-09-30T06:37:24.902Z,225
2017-09-30T06:38:34.833Z,230
2017-09-30T06:39:45.077Z,230
2017-09-30T06:40:54.710Z,235
2017-09-30T06:42:05.233Z,235
2017-09-30T06:43:15.207Z,240
2017-09-30T06:44:25.149Z,240
2017-09-30T06:45:35.398Z,245
2017-09-30T06:46:45.338Z,245
2017-09-30T06:47:55.930Z,250
2017-09-30T06:49:06.173Z,250
2017-09-30T06:50:16.424Z,250
2017-09-30T06:51:26.677Z,255
2017-09-30T06:52:36.616Z,255
2017-09-30T06:53:47.221Z,260
2017-09-30T06:54:57.179Z,260
2017-09-30T06:56:07.442Z,260
2017-09-30T06:57:17.708Z,260
2017-09-30T06:58:27.645Z,260
2017-09-30T06:59:38.243Z,265
2017-09-30T07:00:48.191Z,265
2017-09-30T07:01:58.440Z,265
2017-09-30T07:03:08.380Z,265
2017-09-30T07:04:18.311Z,270
2017-09-30T07:05:28.595Z,275
2017-09-30T07:06:38.532Z,275
2017-09-30T07:07:48.774Z,280
2017-09-30T07:08:58.414Z,290
2017-09-30T07:10:08.658Z,285
2017-09-30T07:11:18.843Z,285
2017-09-30T07:12:29.109Z,290
2017-09-30T07:13:39.356Z,290
2017-09-30T07:14:49.306Z,290
2017-09-30T07:15:59.238Z,290
2017-09-30T07:17:09.425Z,290
2017-09-30T07:18:19.693Z,290
2017-09-30T07:19:29.958Z,285
2017-09-30T07:20:40.219Z,285
2017-09-30T07:21:49.834Z,290
2017-09-30T07:23:00.345Z,290
2017-09-30T07:24:10.605Z,290
2017-09-30T07:25:20.847Z,295
2017-09-30T07:26:30.781Z,300
2017-09-30T07:27:41.039Z,300
2017-09-30T07:28:51.279Z,300
2017-09-30T07:30:01.539Z,300
2017-09-30T07:31:11.788Z,305
2017-09-30T07:32:21.732Z,305
2017-09-30T07:33:31.976Z,310
2017-09-30T07:34:42.526Z,315
2017-09-30T07:35:52.456Z,320
2017-09-30T07:37:02.748Z,320
2017-09-30T07:38:13.011Z,325
2017-09-30T07:39:23.270Z,325
2017-09-30T07:40:33.815Z,330
2017-09-30T07:41:43.750Z,330
2017-09-30T07:42:54.024Z,335
2017-09-30T07:44:03.956Z,340
2017-09-30T07:45:14.203Z,340
2017-09-30T07:46:24.809Z,340
2017-09-30T07:47:35.088Z,345
2017-09-30T07:48:44.720Z,345
2017-09-30T07:49:54.659Z,350
2017-09-30T07:51:04.914Z,350
2017-09-30T07:52:15.189Z,350
2017-09-30T07:53:25.454Z,355
2017-09-30T07:54:35.722Z,360
2017-09-30T07:55:45.980Z,360
2017-09-30T07:56:55.926Z,375
2017-09-30T07:58:06.435Z,535
2017-09-30T07:59:16.679Z,600
2017-09-30T08:00:26.305Z,600
2017-09-30T08:01:36.552Z,605
2017-09-30T08:02:46.815Z,655
2017-09-30T08:03:57.337Z,650
2017-09-30T08:05:07.592Z,670
2017-09-30T08:06:17.869Z,675
2017-09-30T08:07:28.124Z,685
2017-09-30T08:08:38.372Z,725
2017-09-30T08:09:48.965Z,750
2017-09-30T08:10:58.911Z,770
2017-09-30T08:12:09.200Z,760
2017-09-30T08:13:19.462Z,785
2017-09-30T08:14:29.405Z,775
2017-09-30T08:15:39.907Z,805
2017-09-30T08:16:50.174Z,840
2017-09-30T08:18:00.136Z,825
2017-09-30T08:19:10.434Z,885
2017-09-30T08:20:20.707Z,845
2017-09-30T08:21:31.218Z,875
2017-09-30T08:22:40.850Z,900
2017-09-30T08:23:50.477Z,920
2017-09-30T08:25:00.737Z,930
2017-09-30T08:26:10.996Z,920
2017-09-30T08:27:21.512Z,945
2017-09-30T08:28:31.456Z,955
2017-09-30T08:29:41.730Z,950
2017-09-30T08:30:51.669Z,920
2017-09-30T08:32:02.148Z,980
2017-09-30T08:33:12.761Z,1005
2017-09-30T08:34:23.022Z,1045
2017-09-30T08:35:32.643Z,1040
2017-09-30T08:36:42.898Z,1045
2017-09-30T08:37:53.159Z,1060
2017-09-30T08:39:02.729Z,1100
2017-09-30T08:40:12.662Z,1100
2017-09-30T08:41:22.615Z,1060
2017-09-30T08:42:32.246Z,1110
2017-09-30T08:43:42.514Z,1090
2017-09-30T08:44:52.706Z,1160
2017-09-30T08:46:02.983Z,1135
2017-09-30T08:47:13.238Z,1175
2017-09-30T08:48:23.192Z,1170
2017-09-30T08:49:33.454Z,1195
2017-09-30T08:50:44.021Z,1220
2017-09-30T08:51:54.275Z,1340
2017-09-30T08:53:04.544Z,1235
2017-09-30T08:54:14.811Z,1260
2017-09-30T08:55:24.765Z,1280
2017-09-30T08:56:35.268Z,1290
2017-09-30T08:57:45.531Z,1245
2017-09-30T08:58:55.806Z,1265
2017-09-30T09:00:06.067Z,1345
2017-09-30T09:01:16.318Z,1290
2017-09-30T09:02:26.844Z,1280
2017-09-30T09:03:37.089Z,1350
2017-09-30T09:04:47.379Z,1370
2017-09-30T09:05:57.315Z,1330
2017-09-30T09:07:07.260Z,1310
2017-09-30T09:08:17.781Z,1400
2017-09-30T09:09:27.725Z,1395
2017-09-30T09:10:37.675Z,1445
2017-09-30T09:11:47.929Z,1355
2017-09-30T09:12:57.590Z,1395
2017-09-30T09:14:08.185Z,1525
2017-09-30T09:15:17.817Z,1485
2017-09-30T09:16:28.079Z,1470
2017-09-30T09:17:37.729Z,1520
2017-09-30T09:18:47.985Z,1485
2017-09-30T09:19:57.886Z,1515
2017-09-30T09:21:07.843Z,1555
2017-09-30T09:22:17.798Z,1460
2017-09-30T09:23:27.734Z,1595
2017-09-30T09:24:37.677Z,1645
2017-09-30T09:25:48.260Z,1600
2017-09-30T09:26:58.523Z,1560
2017-09-30T09:28:08.783Z,1650
2017-09-30T09:29:18.726Z,1700
2017-09-30T09:30:28.990Z,1650
2017-09-30T09:31:39.294Z,1660
2017-09-30T09:32:49.551Z,1705
2017-09-30T09:33:59.813Z,1700
2017-09-30T09:35:10.074Z,1755
2017-09-30T09:36:20.355Z,1760
2017-09-30T09:37:30.957Z,1795
2017-09-30T09:38:40.907Z,1830
2017-09-30T09:39:50.847Z,1740
2017-09-30T09:41:00.808Z,1760
2017-09-30T09:42:10.752Z,1660
2017-09-30T09:43:21.271Z,1760
2017-09-30T09:44:31.214Z,1810
2017-09-30T09:45:41.496Z,1745
2017-09-30T09:46:51.761Z,1780
2017-09-30T09:48:01.701Z,1815
2017-09-30T09:49:11.893Z,1830
2017-09-30T09:50:21.840Z,1890
2017-09-30T09:51:31.799Z,1955
2017-09-30T09:52:42.060Z,1960
2017-09-30T09:53:52.008Z,1900
2017-09-30T09:55:02.620Z,1880
2017-09-30T09:56:12.601Z,1915
2017-09-30T09:57:22.551Z,1830
2017-09-30T09:58:32.831Z,1865
2017-09-30T09:59:42.787Z,1940
2017-09-30T10:00:53.303Z,2025
2017-09-30T10:02:03.241Z,2090
2017-09-30T10:03:13.498Z,2070
2017-09-30T10:04:23.452Z,1995
2017-09-30T10:05:33.393Z,2050
2017-09-30T10:06:43.326Z,2085
2017-09-30T10:07:53.590Z,2060
2017-09-30T10:09:03.849Z,2025
2017-09-30T10:10:14.123Z,2095
2017-09-30T10:11:24.388Z,2140
2017-09-30T10:12:34.647Z,2130
2017-09-30T10:13:44.598Z,2210
2017-09-30T10:14:54.848Z,2290
2017-09-30T10:16:05.131Z,2175
2017-09-30T10:17:15.394Z,2195
2017-09-30T10:18:25.964Z,2235
2017-09-30T10:19:35.910Z,2255
2017-09-30T10:20:45.858Z,2205
2017-09-30T10:21:56.125Z,2130
2017-09-30T10:23:06.069Z,2185
2017-09-30T10:24:16.579Z,2145
2017-09-30T10:25:26.856Z,2265
2017-09-30T10:26:36.806Z,2320
2017-09-30T10:27:47.076Z,2400
2017-09-30T10:28:57.335Z,2705
2017-09-30T10:30:07.219Z,2585
2017-09-30T10:31:17.501Z,2205
2017-09-30T10:32:27.796Z,2215
2017-09-30T10:33:38.063Z,2575
2017-09-30T10:34:48.337Z,2700
2017-09-30T10:35:58.540Z,2335
2017-09-30T10:37:08.823Z,2285
2017-09-30T10:38:18.756Z,2280
2017-09-30T10:39:29.031Z,2330
2017-09-30T10:40:39.299Z,2445
2017-09-30T10:41:49.538Z,2410
2017-09-30T10:42:59.828Z,2410
2017-09-30T10:44:09.780Z,2475
2017-09-30T10:45:20.048Z,2405
2017-09-30T10:46:30.304Z,2395
2017-09-30T10:47:40.551Z,2390
2017-09-30T10:48:50.819Z,2255
2017-09-30T10:50:01.066Z,2250
2017-09-30T10:51:11.357Z,2235
2017-09-30T10:52:21.640Z,2295
2017-09-30T10:53:31.934Z,2405
2017-09-30T10:54:42.197Z,2335
2017-09-30T10:55:52.456Z,2260
2017-09-30T10:57:02.730Z,2460
2017-09-30T10:58:12.702Z,2525
2017-09-30T10:59:22.997Z,2515
2017-09-30T11:00:32.951Z,2485
2017-09-30T11:01:42.584Z,2395
2017-09-30T11:02:52.574Z,2460
2017-09-30T11:04:02.865Z,2510
2017-09-30T11:05:13.385Z,2530
2017-09-30T11:06:23.649Z,2605
2017-09-30T11:07:33.906Z,2625
2017-09-30T11:08:44.180Z,2560
2017-09-30T11:09:53.800Z,2520
2017-09-30T11:11:04.344Z,2580
2017-09-30T11:12:14.615Z,2615
2017-09-30T11:13:24.253Z,2595
2017-09-30T11:14:34.518Z,2560
2017-09-30T11:15:44.782Z,2565
2017-09-30T11:16:55.075Z,2550
2017-09-30T11:18:05.031Z,2520
2017-09-30T11:19:15.287Z,2560
2017-09-30T11:20:25.226Z,2525
2017-09-30T11:21:34.853Z,2515
2017-09-30T11:22:45.384Z,2595
2017-09-30T11:23:55.648Z,2630
2017-09-30T11:25:05.599Z,2595
2017-09-30T11:26:15.871Z,2605
2017-09-30T11:27:26.134Z,2680
2017-09-30T11:28:36.334Z,2675
2017-09-30T11:29:46.599Z,2490
2017-09-30T11:30:56.558Z,2405
2017-09-30T11:32:06.824Z,2685
2017-09-30T11:33:17.101Z,2760
2017-09-30T11:34:27.623Z,2725
2017-09-30T11:35:37.897Z,2775
2017-09-30T11:36:47.838Z,2765
2017-09-30T11:37:57.793Z,2740
2017-09-30T11:39:08.075Z,2755
2017-09-30T11:40:18.651Z,2860
2017-09-30T11:41:28.937Z,2850
2017-09-30T11:42:39.217Z,2820
2017-09-30T11:43:49.478Z,2800
2017-09-30T11:44:59.107Z,2865
2017-09-30T11:46:09.037Z,2900
2017-09-30T11:47:19.305Z,2775
2017-09-30T11:48:29.260Z,2735
2017-09-30T11:49:39.219Z,2710
2017-09-30T11:50:49.160Z,2845
2017-09-30T11:51:59.678Z,2825
2017-09-30T11:53:09.631Z,2740
2017-09-30T11:54:19.898Z,2645
2017-09-30T11:55:29.533Z,2650
2017-09-30T11:56:39.823Z,2795
2017-09-30T11:57:50.323Z,2835
2017-09-30T11:59:00.278Z,2750
2017-09-30T12:00:10.232Z,2730
2017-09-30T12:01:20.183Z,2755
2017-09-30T12:02:30.134Z,2785
2017-09-30T12:03:40.393Z,2775
2017-09-30T12:04:50.653Z,2780
2017-09-30T12:06:00.921Z,2900
2017-09-30T12:07:10.561Z,2830
2017-09-30T12:08:20.821Z,2850
2017-09-30T12:09:31.451Z,2780
2017-09-30T12:10:41.712Z,2785
2017-09-30T12:11:51.681Z,2790
2017-09-30T12:13:01.637Z,2840
2017-09-30T12:14:11.579Z,2835
2017-09-30T12:15:22.137Z,2755
2017-09-30T12:16:32.103Z,2665
2017-09-30T12:17:42.385Z,2685
2017-09-30T12:18:52.642Z,2735
2017-09-30T12:20:02.914Z,2730
2017-09-30T12:21:13.421Z,2590
2017-09-30T12:22:23.695Z,2480
2017-09-30T12:23:33.334Z,2580
2017-09-30T12:24:43.602Z,2625
2017-09-30T12:25:53.544Z,2695
2017-09-30T12:27:04.104Z,2760
2017-09-30T12:28:14.363Z,2655
2017-09-30T12:29:24.647Z,2715
2017-09-30T12:30:34.925Z,2730
2017-09-30T12:31:45.183Z,2720
2017-09-30T12:32:55.377Z,2690
2017-09-30T12:34:05.653Z,2660
2017-09-30T12:35:15.916Z,2740
2017-09-30T12:36:25.862Z,2615
2017-09-30T12:37:36.135Z,2610
2017-09-30T12:38:46.337Z,2670
2017-09-30T12:39:56.626Z,2680
2017-09-30T12:41:06.900Z,2470
2017-09-30T12:42:16.847Z,2460
2017-09-30T12:43:27.103Z,2630
2017-09-30T12:44:37.621Z,2760
2017-09-30T12:45:47.567Z,2730
2017-09-30T12:46:57.519Z,2670
2017-09-30T12:48:07.459Z,2620
2017-09-30T12:49:17.400Z,2655
2017-09-30T12:50:27.601Z,2640
2017-09-30T12:51:37.872Z,2605
2017-09-30T12:52:47.845Z,2605
2017-09-30T12:53:57.790Z,2670
2017-09-30T12:55:08.045Z,2640
2017-09-30T12:56:18.241Z,2620
2017-09-30T12:57:28.490Z,2595
2017-09-30T12:58:38.443Z,2605
2017-09-30T12:59:48.709Z,2565
2017-09-30T13:00:58.672Z,2490
2017-09-30T13:02:09.188Z,2200
2017-09-30T13:03:19.160Z,2255
2017-09-30T13:04:29.422Z,2355
2017-09-30T13:05:39.679Z,2350
2017-09-30T13:06:49.939Z,2630
2017-09-30T13:08:00.139Z,2625
2017-09-30T13:09:10.092Z,2565
2017-09-30T13:10:20.353Z,2545
2017-09-30T13:11:30.618Z,2695
2017-09-30T13:12:40.562Z,2715
2017-09-30T13:13:51.073Z,2725
2017-09-30T13:15:01.019Z,2775
2017-09-30T13:16:10.975Z,2800
2017-09-30T13:17:20.933Z,2775
2017-09-30T13:18:31.190Z,2790
2017-09-30T13:19:41.703Z,2830
2017-09-30T13:20:51.335Z,2810
2017-09-30T13:22:01.281Z,2825
2017-09-30T13:23:10.912Z,2820
2017-09-30T13:24:21.192Z,2840
2017-09-30T13:25:31.424Z,2510
2017-09-30T13:26:41.691Z,1970
2017-09-30T13:27:51.635Z,2350
2017-09-30T13:29:01.577Z,2635
2017-09-30T13:30:11.860Z,2575
2017-09-30T13:31:22.383Z,2570
2017-09-30T13:32:32.651Z,2540
2017-09-30T13:33:42.611Z,2480
2017-09-30T13:34:52.241Z,2420
2017-09-30T13:36:02.504Z,2395
2017-09-30T13:37:12.706Z,2320
2017-09-30T13:38:22.974Z,2230
2017-09-30T13:39:33.234Z,2250
2017-09-30T13:40:43.513Z,2270
2017-09-30T13:41:53.467Z,2305
2017-09-30T13:43:03.985Z,2225
2017-09-30T13:44:13.946Z,2160
2017-09-30T13:45:24.210Z,2080
2017-09-30T13:46:34.465Z,2000
2017-09-30T13:47:44.728Z,2000
2017-09-30T13:48:54.932Z,1820
2017-09-30T13:50:04.871Z,1895
2017-09-30T13:51:15.124Z,1980
2017-09-30T13:52:25.381Z,1915
2017-09-30T13:53:35.647Z,1945
2017-09-30T13:54:45.845Z,1940
2017-09-30T13:55:56.101Z,1990
2017-09-30T13:57:06.052Z,1990
2017-09-30T13:58:15.996Z,1960
2017-09-30T13:59:26.267Z,1915
2017-09-30T14:00:36.789Z,1960
2017-09-30T14:01:47.052Z,1920
2017-09-30T14:02:57.002Z,1885
2017-09-30T14:04:07.261Z,1870
2017-09-30T14:05:17.523Z,1875
2017-09-30T14:06:28.041Z,1880
2017-09-30T14:07:37.991Z,1885
2017-09-30T14:08:48.258Z,1900
2017-09-30T14:09:58.513Z,1880
2017-09-30T14:11:08.794Z,1825
2017-09-30T14:12:18.728Z,1805
2017-09-30T14:13:28.675Z,1775
2017-09-30T14:14:38.681Z,1860
2017-09-30T14:15:48.979Z,1825
2017-09-30T14:16:59.243Z,1700
2017-09-30T14:18:09.750Z,1575
2017-09-30T14:19:20.029Z,1465
2017-09-30T14:20:29.970Z,1375
2017-09-30T14:21:39.925Z,1360
2017-09-30T14:22:50.189Z,1310
2017-09-30T14:24:00.117Z,1290
2017-09-30T14:25:10.366Z,1340
2017-09-30T14:26:19.985Z,1360
2017-09-30T14:27:30.251Z,1435
2017-09-30T14:28:40.511Z,1530
2017-09-30T14:29:50.707Z,1525
2017-09-30T14:31:00.961Z,1460
2017-09-30T14:32:10.898Z,1475
2017-09-30T14:33:21.167Z,1470
2017-09-30T14:34:31.439Z,1490
2017-09-30T14:35:41.954Z,1565
2017-09-30T14:36:52.235Z,1555
2017-09-30T14:38:02.179Z,1550
2017-09-30T14:39:12.454Z,1490
2017-09-30T14:40:22.720Z,1460
2017-09-30T14:41:33.239Z,1415
2017-09-30T14:42:43.512Z,1405
2017-09-30T14:43:53.771Z,1370
2017-09-30T14:45:03.733Z,1315
2017-09-30T14:46:13.997Z,1310
2017-09-30T14:47:24.204Z,1280
2017-09-30T14:48:34.501Z,1265
2017-09-30T14:49:44.779Z,1225
2017-09-30T14:50:55.046Z,1210
2017-09-30T14:52:04.684Z,1200
2017-09-30T14:53:15.209Z,1245
2017-09-30T14:54:25.461Z,1255
2017-09-30T14:55:35.746Z,1215
2017-09-30T14:56:46.010Z,1210
2017-09-30T14:57:56.277Z,1220
2017-09-30T14:59:06.791Z,1220
2017-09-30T15:00:16.741Z,1200
2017-09-30T15:01:27.002Z,1130
2017-09-30T15:02:37.268Z,1090
2017-09-30T15:03:47.527Z,1075
2017-09-30T15:04:57.401Z,1080
2017-09-30T15:06:07.674Z,1010
2017-09-30T15:07:17.951Z,855
2017-09-30T15:08:27.894Z,705
2017-09-30T15:09:38.161Z,675
2017-09-30T15:10:48.675Z,770
2017-09-30T15:11:58.931Z,870
2017-09-30T15:13:09.198Z,860
2017-09-30T15:14:19.444Z,825
2017-09-30T15:15:29.395Z,785
2017-09-30T15:16:39.906Z,750
2017-09-30T15:17:50.169Z,710
2017-09-30T15:19:00.117Z,695
2017-09-30T15:20:10.384Z,675
2017-09-30T15:21:20.640Z,635
2017-09-30T15:22:31.143Z,590
2017-09-30T15:23:41.401Z,570
2017-09-30T15:24:51.344Z,565
2017-09-30T15:26:01.598Z,555
2017-09-30T15:27:11.856Z,535
2017-09-30T15:28:22.401Z,520
2017-09-30T15:29:32.648Z,505
2017-09-30T15:30:42.621Z,485
2017-09-30T15:31:52.573Z,460
2017-09-30T15:33:02.515Z,455
2017-09-30T15:34:13.038Z,465
2017-09-30T15:35:22.674Z,480
2017-09-30T15:36:32.940Z,475
2017-09-30T15:37:42.903Z,460
2017-09-30T15:38:53.170Z,450
2017-09-30T15:40:03.677Z,460
2017-09-30T15:41:13.313Z,480
2017-09-30T15:42:23.558Z,495
2017-09-30T15:43:33.192Z,500
2017-09-30T15:44:43.136Z,510
2017-09-30T15:45:53.654Z,520
2017-09-30T15:47:03.592Z,530
2017-09-30T15:48:13.846Z,540
2017-09-30T15:49:23.787Z,590
2017-09-30T15:50:34.046Z,665
2017-09-30T15:51:44.559Z,685
2017-09-30T15:52:54.822Z,660
2017-09-30T15:54:05.083Z,640
2017-09-30T15:55:15.337Z,645
2017-09-30T15:56:25.281Z,625
2017-09-30T15:57:35.789Z,620
2017-09-30T15:58:46.072Z,625
2017-09-30T15:59:56.321Z,585
2017-09-30T16:01:06.590Z,565
2017-09-30T16:02:16.528Z,540
2017-09-30T16:03:26.728Z,505
2017-09-30T16:04:37.013Z,470
2017-09-30T16:05:47.277Z,410
2017-09-30T16:06:57.537Z,365
2017-09-30T16:08:07.802Z,320
2017-09-30T16:09:18.324Z,285
2017-09-30T16:10:28.573Z,255
2017-09-30T16:11:38.835Z,230
2017-09-30T16:12:49.103Z,205
2017-09-30T16:13:59.361Z,180